createdAt,value
2023-05-24T00:00:13.563Z,4.40
2023-05-24T00:02:42.553Z,4.20
2023-05-24T00:05:11.120Z,5.30
2023-05-24T00:07:38.941Z,2.10
2023-05-24T00:10:07.239Z,2.90
2023-05-24T00:12:35.427Z,3.80
2023-05-24T00:15:03.655Z,5.40
2023-05-24T00:17:31.405Z,6.70
2023-05-24T00:19:59.970Z,4.80
2023-05-24T00:22:27.971Z,4.30
2023-05-24T00:24:55.652Z,5.90
2023-05-24T00:27:23.252Z,4.70
2023-05-24T00:29:51.607Z,3.80
2023-05-24T00:32:19.899Z,4.20
2023-05-24T00:34:47.905Z,3.70
2023-05-24T00:37:15.882Z,6.20
2023-05-24T00:39:43.645Z,7.40
2023-05-24T00:42:11.777Z,7.40
2023-05-24T00:44:39.639Z,8.40
2023-05-24T00:47:07.611Z,10.30
2023-05-24T00:49:35.851Z,9.50
2023-05-24T00:52:04.459Z,11.10
2023-05-24T00:54:37.289Z,9.10
2023-05-24T00:57:05.733Z,7.70
2023-05-24T00:59:33.850Z,15.30
2023-05-24T01:02:01.789Z,20.30
2023-05-24T01:04:33.050Z,18.60
2023-05-24T01:07:23.101Z,17.30
2023-05-24T01:10:06.970Z,17.50
2023-05-24T01:12:51.414Z,15.80
2023-05-24T01:15:37.412Z,14.20
2023-05-24T01:18:22.314Z,13.70
2023-05-24T01:21:02.863Z,10.10
2023-05-24T01:23:55.589Z,8.90
2023-05-24T01:26:31.156Z,9.70
2023-05-24T01:28:59.212Z,10.40
2023-05-24T01:31:27.494Z,10.70
2023-05-24T01:33:55.506Z,11.10
2023-05-24T01:36:23.637Z,10.90
2023-05-24T01:38:51.565Z,12.60
2023-05-24T01:41:31.391Z,12.50
2023-05-24T01:44:17.028Z,15.10
2023-05-24T01:46:48.457Z,12.90
2023-05-24T01:49:26.677Z,11.40
2023-05-24T01:51:55.612Z,11.10
2023-05-24T01:54:26.972Z,11.60
2023-05-24T01:56:55.831Z,10.90
2023-05-24T01:59:24.663Z,10.30
2023-05-24T02:01:53.513Z,10.60
2023-05-24T02:04:21.457Z,11.80
2023-05-24T02:06:49.262Z,9.90
2023-05-24T02:09:17.321Z,11.20
2023-05-24T02:11:45.516Z,10.30
2023-05-24T02:14:13.586Z,11.20
2023-05-24T02:16:43.014Z,11.20
2023-05-24T02:19:11.296Z,11.20
2023-05-24T02:21:41.728Z,10.90
2023-05-24T02:24:13.064Z,11.70
2023-05-24T02:26:41.116Z,11.40
2023-05-24T02:29:09.113Z,11.00
2023-05-24T02:31:37.671Z,12.40
2023-05-24T02:34:05.458Z,11.20
2023-05-24T02:36:36.587Z,11.00
2023-05-24T02:39:04.560Z,12.10
2023-05-24T02:41:32.394Z,12.00
2023-05-24T02:44:00.254Z,13.40
2023-05-24T02:46:28.492Z,13.90
2023-05-24T02:48:56.270Z,16.80
2023-05-24T02:51:24.426Z,22.00
2023-05-24T02:53:52.486Z,20.30
2023-05-24T02:56:22.182Z,11.30
2023-05-24T02:58:50.443Z,9.90
2023-05-24T03:01:18.389Z,9.00
2023-05-24T03:03:47.575Z,7.80
2023-05-24T03:06:15.762Z,8.90
2023-05-24T03:08:43.560Z,9.30
2023-05-24T03:11:11.948Z,8.40
2023-05-24T03:13:42.660Z,9.10
2023-05-24T03:16:11.603Z,9.30
2023-05-24T03:18:39.662Z,9.10
2023-05-24T03:21:07.846Z,8.60
2023-05-24T03:23:35.629Z,10.60
2023-05-24T03:26:03.238Z,9.30
2023-05-24T03:28:30.934Z,10.50
2023-05-24T03:31:00.012Z,10.40
2023-05-24T03:33:28.497Z,9.80
2023-05-24T03:35:56.726Z,10.10
2023-05-24T03:38:24.764Z,9.40
2023-05-24T03:40:52.664Z,8.60
2023-05-24T03:43:21.334Z,9.70
2023-05-24T03:45:53.091Z,9.20
2023-05-24T03:48:21.306Z,12.20
2023-05-24T03:50:49.807Z,8.90
2023-05-24T03:53:19.528Z,9.20
2023-05-24T03:55:48.722Z,7.30
2023-05-24T03:58:16.907Z,8.90
2023-05-24T04:00:46.112Z,8.40
2023-05-24T04:03:14.984Z,8.50
2023-05-24T04:05:43.182Z,8.40
2023-05-24T04:08:12.641Z,7.70
2023-05-24T04:10:40.337Z,8.50
2023-05-24T04:13:11.656Z,8.70
2023-05-24T04:15:39.587Z,9.50
2023-05-24T04:18:07.661Z,8.40
2023-05-24T04:20:35.992Z,8.50
2023-05-24T04:23:03.644Z,7.30
2023-05-24T04:25:33.614Z,7.40
2023-05-24T04:28:02.887Z,6.90
2023-05-24T04:30:32.115Z,7.70
2023-05-24T04:33:00.208Z,7.80
2023-05-24T04:35:30.888Z,9.50
2023-05-24T04:37:59.926Z,10.80
2023-05-24T04:40:28.275Z,10.60
2023-05-24T04:42:56.326Z,10.70
2023-05-24T04:45:25.166Z,10.20
2023-05-24T04:47:53.295Z,6.20
2023-05-24T04:50:21.131Z,6.20
2023-05-24T04:52:49.297Z,10.00
2023-05-24T04:55:17.293Z,10.20
2023-05-24T04:57:45.422Z,12.80
2023-05-24T05:00:14.144Z,12.10
2023-05-24T05:02:43.181Z,11.60
2023-05-24T05:05:11.067Z,10.50
2023-05-24T05:07:39.027Z,10.40
2023-05-24T05:10:08.530Z,11.10
2023-05-24T05:12:36.836Z,8.30
2023-05-24T05:15:06.152Z,8.30
2023-05-24T05:17:34.520Z,9.70
2023-05-24T05:20:03.292Z,9.00
2023-05-24T05:22:31.371Z,9.60
2023-05-24T05:25:01.090Z,10.00
2023-05-24T05:27:30.335Z,9.90
2023-05-24T05:29:58.090Z,10.20
2023-05-24T05:32:26.457Z,9.30
2023-05-24T05:34:54.310Z,8.50
2023-05-24T05:37:22.307Z,7.40
2023-05-24T05:39:50.096Z,8.90
2023-05-24T05:42:18.482Z,8.50
2023-05-24T05:44:46.977Z,9.20
2023-05-24T05:47:15.180Z,8.90
2023-05-24T05:49:43.941Z,10.60
2023-05-24T05:52:12.248Z,9.80
2023-05-24T05:54:40.074Z,10.30
2023-05-24T05:57:10.771Z,10.90
2023-05-24T05:59:38.913Z,9.00
2023-05-24T06:02:07.044Z,9.40
2023-05-24T06:04:35.045Z,9.30
2023-05-24T06:07:02.853Z,11.50
2023-05-24T06:09:31.122Z,10.00
2023-05-24T06:11:58.982Z,10.70
2023-05-24T06:14:27.315Z,9.00
2023-05-24T06:16:56.276Z,9.40
2023-05-24T06:19:25.638Z,8.80
2023-05-24T06:21:53.836Z,8.30
2023-05-24T06:24:21.802Z,6.90
2023-05-24T06:26:52.060Z,6.60
2023-05-24T06:29:20.865Z,6.40
2023-05-24T06:31:50.068Z,5.40
2023-05-24T06:34:21.707Z,5.30
2023-05-24T06:36:51.831Z,5.80
2023-05-24T06:39:19.950Z,5.20
2023-05-24T06:41:48.404Z,5.80
2023-05-24T06:44:16.681Z,5.50
2023-05-24T06:46:44.840Z,6.00
2023-05-24T06:49:12.891Z,5.40
2023-05-24T06:51:42.059Z,5.30
2023-05-24T06:54:09.857Z,5.90
2023-05-24T06:56:37.619Z,7.70
2023-05-24T06:59:05.303Z,7.80
2023-05-24T07:01:33.625Z,9.20
2023-05-24T07:04:01.675Z,7.60
2023-05-24T07:06:29.518Z,7.30
2023-05-24T07:08:57.848Z,7.20
2023-05-24T07:11:27.714Z,6.10
2023-05-24T07:13:55.403Z,6.10
2023-05-24T07:16:25.248Z,7.50
2023-05-24T07:18:55.419Z,8.80
2023-05-24T07:21:23.749Z,8.10
2023-05-24T07:23:52.065Z,8.70
2023-05-24T07:26:19.891Z,7.50
2023-05-24T07:28:48.459Z,8.20
2023-05-24T07:31:16.867Z,6.60
2023-05-24T07:33:44.934Z,5.80
2023-05-24T07:36:13.237Z,7.40
2023-05-24T07:38:41.054Z,6.10
2023-05-24T07:41:09.022Z,6.00
2023-05-24T07:43:38.030Z,5.40
2023-05-24T07:46:06.079Z,5.60
2023-05-24T07:48:35.967Z,5.10
2023-05-24T07:51:06.733Z,4.70
2023-05-24T07:53:35.004Z,4.80
2023-05-24T07:56:03.233Z,4.40
2023-05-24T07:58:32.085Z,4.40
2023-05-24T08:01:00.510Z,4.50
2023-05-24T08:03:28.979Z,4.50
2023-05-24T08:05:57.498Z,5.60
2023-05-24T08:08:26.121Z,6.80
2023-05-24T08:10:54.644Z,6.40
2023-05-24T08:13:23.318Z,5.80
2023-05-24T08:15:52.297Z,5.00
2023-05-24T08:18:20.089Z,4.10
2023-05-24T08:20:48.123Z,4.60
2023-05-24T08:23:16.314Z,4.70
2023-05-24T08:25:44.865Z,4.30
2023-05-24T08:28:13.262Z,5.90
2023-05-24T08:30:41.424Z,5.30
2023-05-24T08:33:09.542Z,4.20
2023-05-24T08:35:39.258Z,6.10
2023-05-24T08:38:07.792Z,4.60
2023-05-24T08:40:35.722Z,4.60
2023-05-24T08:43:04.357Z,5.00
2023-05-24T08:45:33.354Z,4.70
2023-05-24T08:48:01.269Z,5.00
2023-05-24T08:50:28.990Z,4.60
2023-05-24T08:52:57.287Z,3.90
2023-05-24T08:55:25.526Z,4.60
2023-05-24T08:57:54.353Z,5.30
2023-05-24T09:00:23.007Z,4.90
2023-05-24T09:02:51.082Z,4.60
2023-05-24T09:05:22.047Z,4.50
2023-05-24T09:07:51.280Z,4.70
2023-05-24T09:10:21.553Z,4.60
2023-05-24T09:12:56.091Z,4.70
2023-05-24T09:15:23.878Z,3.80
2023-05-24T09:17:51.887Z,4.30
2023-05-24T09:20:21.107Z,4.80
2023-05-24T09:22:52.056Z,4.40
2023-05-24T09:25:22.170Z,5.00
2023-05-24T09:27:51.816Z,4.10
2023-05-24T09:30:20.548Z,4.20
2023-05-24T09:32:59.197Z,5.10
2023-05-24T09:35:27.464Z,5.70
2023-05-24T09:38:00.451Z,6.10
2023-05-24T09:40:29.513Z,6.20
2023-05-24T09:43:10.449Z,5.50
2023-05-24T09:45:46.959Z,5.40
2023-05-24T09:48:19.012Z,6.20
2023-05-24T09:51:00.355Z,5.30
2023-05-24T09:53:28.931Z,6.30
2023-05-24T09:55:57.427Z,6.00
2023-05-24T09:58:30.279Z,5.30
2023-05-24T10:01:07.014Z,5.80
2023-05-24T10:03:38.268Z,5.50
2023-05-24T10:06:08.098Z,6.10
2023-05-24T10:08:39.254Z,5.20
2023-05-24T10:11:07.157Z,6.20
2023-05-24T10:13:36.947Z,6.00
2023-05-24T10:16:05.986Z,6.00
2023-05-24T10:18:35.185Z,5.90
2023-05-24T10:21:03.317Z,6.10
2023-05-24T10:23:31.753Z,6.40
2023-05-24T10:26:10.339Z,7.10
2023-05-24T10:29:07.291Z,6.40
2023-05-24T10:31:37.613Z,6.10
2023-05-24T10:34:08.723Z,6.30
2023-05-24T10:36:38.032Z,5.90
2023-05-24T10:39:08.454Z,6.20
2023-05-24T10:41:41.869Z,6.70
2023-05-24T10:44:13.998Z,6.10
2023-05-24T10:47:04.571Z,6.10
2023-05-24T10:49:33.456Z,7.20
2023-05-24T10:52:08.809Z,6.90
2023-05-24T10:54:39.972Z,6.70
2023-05-24T10:57:10.747Z,7.70
2023-05-24T10:59:39.815Z,6.00
2023-05-24T11:02:17.948Z,5.90
2023-05-24T11:04:47.249Z,5.20
2023-05-24T11:07:17.032Z,5.80
2023-05-24T11:09:47.877Z,5.80
2023-05-24T11:12:17.984Z,4.80
2023-05-24T11:14:51.301Z,4.40
2023-05-24T11:17:24.128Z,4.00
2023-05-24T11:19:56.743Z,4.00
2023-05-24T11:22:25.912Z,3.30
2023-05-24T11:24:53.836Z,3.90
2023-05-24T11:27:22.228Z,3.90
2023-05-24T11:29:50.717Z,4.00
2023-05-24T11:32:20.630Z,4.40
2023-05-24T11:34:49.229Z,3.80
2023-05-24T11:37:18.288Z,3.50
2023-05-24T11:39:53.060Z,3.90
2023-05-24T11:42:22.379Z,4.00
2023-05-24T11:44:50.294Z,3.90
2023-05-24T11:47:21.488Z,5.20
2023-05-24T11:49:52.996Z,3.90
2023-05-24T11:52:21.083Z,3.40
2023-05-24T11:54:49.635Z,3.50
2023-05-24T11:57:18.164Z,3.90
2023-05-24T11:59:45.955Z,3.50
2023-05-24T12:02:14.920Z,3.40
2023-05-24T12:04:43.646Z,3.30
2023-05-24T12:07:12.421Z,2.70
2023-05-24T12:09:40.322Z,2.90
2023-05-24T12:12:08.477Z,3.70
2023-05-24T12:14:36.917Z,3.80
2023-05-24T12:17:05.256Z,2.70
2023-05-24T12:19:37.263Z,2.90
2023-05-24T12:22:07.735Z,3.30
2023-05-24T12:24:36.480Z,4.30
2023-05-24T12:27:08.982Z,3.60
2023-05-24T12:29:39.010Z,4.00
2023-05-24T12:32:13.125Z,3.60
2023-05-24T12:34:42.947Z,3.40
2023-05-24T12:37:13.174Z,3.60
2023-05-24T12:39:43.916Z,3.80
2023-05-24T12:42:15.188Z,4.20
2023-05-24T12:44:45.803Z,4.00
2023-05-24T12:47:13.988Z,3.40
2023-05-24T12:49:44.240Z,3.60
2023-05-24T12:52:12.774Z,3.60
2023-05-24T12:54:41.844Z,4.10
2023-05-24T12:57:10.153Z,3.80
2023-05-24T12:59:38.817Z,3.10
2023-05-24T13:02:07.653Z,3.30
2023-05-24T13:04:36.384Z,3.60
2023-05-24T13:07:04.876Z,3.60
2023-05-24T13:09:34.564Z,3.50
2023-05-24T13:12:03.264Z,3.40
2023-05-24T13:14:31.612Z,3.40
2023-05-24T13:17:00.546Z,3.60
2023-05-24T13:19:28.188Z,3.00
2023-05-24T13:21:55.954Z,3.30
2023-05-24T13:24:24.955Z,3.40
2023-05-24T13:26:55.055Z,4.10
2023-05-24T13:29:36.549Z,3.80
2023-05-24T13:32:11.626Z,3.50
2023-05-24T13:34:39.704Z,3.60
2023-05-24T13:37:08.445Z,3.40
2023-05-24T13:42:28.598Z,3.40
2023-05-24T13:44:58.458Z,3.00
2023-05-24T13:47:38.749Z,2.70
2023-05-24T13:50:08.218Z,3.20
2023-05-24T13:52:37.053Z,3.20
2023-05-24T13:55:05.501Z,3.20
2023-05-24T13:57:49.528Z,3.20
2023-05-24T14:00:19.235Z,2.90
2023-05-24T14:02:47.195Z,3.80
2023-05-24T14:05:26.974Z,3.80
2023-05-24T14:07:58.274Z,3.60
2023-05-24T14:10:26.842Z,3.50
2023-05-24T14:13:12.839Z,3.00
2023-05-24T14:15:43.197Z,3.50
2023-05-24T14:18:11.367Z,4.60
2023-05-24T14:20:40.663Z,3.40
2023-05-24T14:23:09.009Z,2.70
2023-05-24T14:25:36.927Z,3.20
2023-05-24T14:28:04.964Z,3.80
2023-05-24T14:30:32.890Z,3.00
2023-05-24T14:33:03.487Z,2.70
2023-05-24T14:35:38.247Z,3.60
2023-05-24T14:38:06.908Z,3.20
2023-05-24T14:40:34.667Z,3.60
2023-05-24T14:43:03.340Z,3.00
2023-05-24T14:45:31.426Z,3.60
2023-05-24T14:48:01.074Z,3.30
2023-05-24T14:50:28.935Z,3.50
2023-05-24T14:52:56.892Z,3.30
2023-05-24T14:55:25.266Z,3.30
2023-05-24T14:57:53.077Z,3.30
2023-05-24T15:00:22.763Z,2.60
2023-05-24T15:02:52.736Z,3.90
2023-05-24T15:05:20.548Z,3.40
2023-05-24T15:07:48.792Z,3.20
2023-05-24T15:10:16.461Z,3.10
2023-05-24T15:12:45.074Z,3.40
2023-05-24T15:15:13.658Z,2.50
2023-05-24T15:17:41.855Z,3.10
2023-05-24T15:20:10.538Z,3.60
2023-05-24T15:22:38.743Z,3.20
2023-05-24T15:25:07.763Z,2.80
2023-05-24T15:27:35.467Z,3.00
2023-05-24T15:30:03.620Z,2.70
2023-05-24T15:32:31.977Z,3.10
2023-05-24T15:35:00.601Z,3.60
2023-05-24T15:37:28.571Z,3.00
2023-05-24T15:39:56.160Z,3.40
2023-05-24T15:42:25.466Z,4.30
2023-05-24T15:44:53.814Z,4.30
2023-05-24T15:47:22.735Z,4.20
2023-05-24T15:49:50.908Z,4.40
2023-05-24T15:52:19.444Z,4.30
2023-05-24T15:54:47.700Z,4.30
2023-05-24T15:57:15.902Z,3.80
2023-05-24T15:59:45.436Z,5.00
2023-05-24T16:02:14.181Z,4.10
2023-05-24T16:04:42.361Z,3.80
2023-05-24T16:07:10.147Z,4.60
2023-05-24T16:09:38.073Z,4.10
2023-05-24T16:12:07.244Z,6.00
2023-05-24T16:14:35.059Z,5.90
2023-05-24T16:17:05.359Z,5.00
2023-05-24T16:19:33.901Z,4.20
2023-05-24T16:22:02.519Z,5.10
2023-05-24T16:24:30.589Z,5.60
2023-05-24T16:26:58.565Z,4.90
2023-05-24T16:29:26.926Z,5.00
2023-05-24T16:31:54.883Z,4.10
2023-05-24T16:34:24.476Z,4.30
2023-05-24T16:36:52.554Z,4.50
2023-05-24T16:39:20.470Z,4.70
2023-05-24T16:41:48.808Z,4.30
2023-05-24T16:44:21.697Z,4.60
2023-05-24T16:46:53.837Z,4.90
2023-05-24T16:49:25.030Z,4.90
2023-05-24T16:51:52.850Z,4.90
2023-05-24T16:54:21.527Z,5.40
2023-05-24T16:56:49.799Z,5.80
2023-05-24T16:59:18.021Z,5.50
2023-05-24T17:01:45.862Z,6.10
2023-05-24T17:04:13.695Z,6.40
2023-05-24T17:06:42.525Z,6.80
2023-05-24T17:09:10.235Z,5.90
2023-05-24T17:11:38.395Z,7.70
2023-05-24T17:14:06.140Z,6.20
2023-05-24T17:16:34.055Z,6.50
2023-05-24T17:19:02.219Z,6.20
2023-05-24T17:21:31.182Z,6.90
2023-05-24T17:23:59.905Z,7.10
2023-05-24T17:26:28.299Z,6.80
2023-05-24T17:28:57.394Z,6.60
2023-05-24T17:31:25.289Z,6.50
2023-05-24T17:33:53.520Z,7.00
2023-05-24T17:36:22.027Z,7.20
2023-05-24T17:38:49.767Z,7.20
2023-05-24T17:41:18.303Z,7.50
2023-05-24T17:43:46.390Z,7.20
2023-05-24T17:46:14.502Z,8.00
2023-05-24T17:48:43.686Z,7.70
2023-05-24T17:51:11.534Z,8.20
2023-05-24T17:53:41.198Z,7.90
2023-05-24T17:56:09.347Z,8.00
2023-05-24T17:58:37.656Z,8.20
2023-05-24T18:01:06.734Z,7.50
2023-05-24T18:03:37.293Z,7.40
2023-05-24T18:06:07.264Z,9.70
2023-05-24T18:08:37.407Z,9.50
2023-05-24T18:11:08.745Z,9.10
2023-05-24T18:13:40.499Z,9.20
2023-05-24T18:16:09.575Z,6.90
2023-05-24T18:18:40.382Z,6.40
2023-05-24T18:21:09.833Z,5.50
2023-05-24T18:23:38.503Z,5.80
2023-05-24T18:26:07.429Z,6.00
2023-05-24T18:28:38.677Z,5.90
2023-05-24T18:31:14.772Z,5.90
2023-05-24T18:33:42.685Z,6.60
2023-05-24T18:36:12.876Z,6.10
2023-05-24T18:38:41.361Z,5.10
2023-05-24T18:41:10.396Z,6.00
2023-05-24T18:43:38.799Z,5.60
2023-05-24T18:46:07.622Z,6.70
2023-05-24T18:48:35.605Z,6.00
2023-05-24T18:51:03.210Z,7.30
2023-05-24T18:53:30.904Z,8.10
2023-05-24T18:55:58.825Z,6.50
2023-05-24T18:58:26.429Z,7.50
2023-05-24T19:00:54.386Z,5.50
2023-05-24T19:03:22.554Z,6.40
2023-05-24T19:05:50.724Z,7.50
2023-05-24T19:08:21.180Z,6.00
2023-05-24T19:10:49.246Z,7.30
2023-05-24T19:13:17.378Z,8.60
2023-05-24T19:15:45.520Z,8.70
2023-05-24T19:18:15.023Z,7.70
2023-05-24T19:20:43.435Z,8.60
2023-05-24T19:23:11.401Z,9.20
2023-05-24T19:25:42.224Z,8.70
2023-05-24T19:28:11.140Z,6.60
2023-05-24T19:30:39.234Z,5.40
2023-05-24T19:33:07.834Z,5.40
2023-05-24T19:35:37.193Z,5.10
2023-05-24T19:38:05.374Z,5.80
2023-05-24T19:40:33.492Z,4.90
2023-05-24T19:43:02.326Z,5.30
2023-05-24T19:45:30.709Z,5.70
2023-05-24T19:47:59.835Z,4.40
2023-05-24T19:50:29.754Z,4.50
2023-05-24T19:52:59.039Z,5.10
2023-05-24T19:55:26.688Z,5.40
2023-05-24T19:57:54.490Z,5.20
2023-05-24T20:00:22.395Z,5.20
2023-05-24T20:02:50.126Z,7.00
2023-05-24T20:05:18.442Z,5.20
2023-05-24T20:07:46.986Z,5.10
2023-05-24T20:10:15.320Z,5.90
2023-05-24T20:12:43.333Z,7.00
2023-05-24T20:15:11.983Z,7.80
2023-05-24T20:17:39.911Z,6.60
2023-05-24T20:20:08.419Z,6.30
2023-05-24T20:22:36.838Z,6.60
2023-05-24T20:25:04.785Z,6.10
2023-05-24T20:27:33.116Z,6.70
2023-05-24T20:30:01.532Z,7.30
2023-05-24T20:32:32.689Z,7.80
2023-05-24T20:35:01.391Z,8.40
2023-05-24T20:37:29.087Z,8.10
2023-05-24T20:39:57.112Z,7.00
2023-05-24T20:42:24.903Z,7.20
2023-05-24T20:44:53.696Z,8.00
2023-05-24T20:47:21.913Z,7.30
2023-05-24T20:49:49.580Z,8.40
2023-05-24T20:52:17.204Z,6.60
2023-05-24T20:54:45.282Z,6.70
2023-05-24T20:57:14.209Z,7.30
2023-05-24T20:59:42.060Z,7.40
2023-05-24T21:02:10.235Z,6.80
2023-05-24T21:04:38.160Z,6.60
2023-05-24T21:07:05.922Z,6.30
2023-05-24T21:09:35.118Z,7.70
2023-05-24T21:12:03.383Z,6.60
2023-05-24T21:14:31.585Z,7.60
2023-05-24T21:16:59.300Z,6.30
2023-05-24T21:19:27.315Z,7.20
2023-05-24T21:21:55.383Z,6.10
2023-05-24T21:24:23.276Z,7.90
2023-05-24T21:26:52.133Z,6.90
2023-05-24T21:29:20.202Z,7.40
2023-05-24T21:31:49.002Z,6.40
2023-05-24T21:34:16.952Z,6.00
2023-05-24T21:36:45.100Z,7.00
2023-05-24T21:39:13.051Z,7.30
2023-05-24T21:41:41.649Z,7.30
2023-05-24T21:44:09.437Z,6.90
2023-05-24T21:46:37.213Z,6.90
2023-05-24T21:49:04.832Z,7.10
2023-05-24T21:51:32.798Z,7.80
2023-05-24T21:54:00.720Z,7.50
2023-05-24T21:56:29.939Z,7.10
2023-05-24T21:58:57.883Z,6.00
2023-05-24T22:01:25.829Z,8.20
2023-05-24T22:03:54.006Z,7.60
2023-05-24T22:06:23.086Z,7.60
2023-05-24T22:08:51.710Z,7.50
2023-05-24T22:11:20.114Z,8.30
2023-05-24T22:13:48.110Z,7.80
2023-05-24T22:16:16.265Z,7.80
2023-05-24T22:18:44.241Z,8.60
2023-05-24T22:21:14.713Z,9.00
2023-05-24T22:23:44.209Z,8.30
2023-05-24T22:26:12.062Z,8.10
2023-05-24T22:28:53.814Z,8.40
2023-05-24T22:31:21.854Z,7.70
2023-05-24T22:33:49.678Z,7.70
2023-05-24T22:36:17.636Z,7.60
2023-05-24T22:38:45.535Z,7.40
2023-05-24T22:41:13.442Z,7.20
2023-05-24T22:43:41.513Z,6.90
2023-05-24T22:46:10.745Z,6.40
2023-05-24T22:48:40.800Z,7.90
2023-05-24T22:51:09.372Z,7.40
2023-05-24T22:53:39.301Z,6.40
2023-05-24T22:56:10.690Z,6.90
2023-05-24T22:58:38.611Z,7.60
2023-05-24T23:01:06.845Z,8.10
2023-05-24T23:03:34.748Z,7.90
2023-05-24T23:06:04.635Z,7.20
2023-05-24T23:08:33.627Z,8.10
2023-05-24T23:11:01.465Z,7.50
2023-05-24T23:13:33.497Z,6.80
2023-05-24T23:16:01.668Z,7.30
2023-05-24T23:18:29.565Z,7.10
2023-05-24T23:20:58.655Z,7.30
2023-05-24T23:23:27.422Z,7.30
2023-05-24T23:25:55.472Z,7.80
2023-05-24T23:28:24.473Z,7.70
2023-05-24T23:33:08.031Z,7.90
2023-05-24T23:35:35.925Z,7.70
2023-05-24T23:38:03.645Z,7.80
2023-05-24T23:40:31.497Z,7.40
2023-05-24T23:42:59.229Z,8.50
2023-05-24T23:45:27.101Z,7.10
2023-05-24T23:47:54.801Z,8.80
2023-05-24T23:50:22.932Z,7.30
2023-05-24T23:52:50.796Z,7.40
2023-05-24T23:55:18.907Z,8.30
2023-05-24T23:57:47.773Z,7.50
